KDVT

Details ICAO KDVT (DVT)
Name PHOENIX DEER VALLEY
Region United States
Timezone America/Phoenix (UTC-7.0)
Plans Departing 44
Arriving 22
Stats Elevation 1,478 ft / 450 m (AMSL)
Location 33.688604° -112.082441°
Runways 2
Magnetic Variation 10.376° E
Sunrise 2017-12-14 14:26:33 UTC / 2017-12-14 07:26:33 Local
Sunset 2017-12-15 00:22:33 UTC / 2017-12-14 17:22:33 Local
Advertisement - Login to hide

Runways

ID Width Length Bearing (true) Bearing (mag) Surface Threshold Offset Overrun Length
07L 75 ft / 23 m 4,491 ft / 1,369 m 86.00° 75.62° Asphalt 0 ft / 0 m 0 ft / 0 m
07R 100 ft / 30 m 8,192 ft / 2,497 m 85.98° 75.60° Asphalt 897 ft / 273 m 154 ft / 47 m
25L 100 ft / 30 m 8,192 ft / 2,497 m 266.00° 255.62° Asphalt 930 ft / 283 m 140 ft / 43 m
25R 75 ft / 23 m 4,491 ft / 1,369 m 266.01° 255.63° Asphalt 0 ft / 0 m 0 ft / 0 m

Map

Weather


0- 5 10 15 20 25 30 35+ Temperature / ° C

Clouds and Precipitation
Forecast for 2017-12-14 18:00 UTC. Updated 7 minutes ago

Ground ~20,000 ft ~40,000 ft Winds

METAR

KDVT 141453Z 00000KT 10SM CLR 07/M14 A2995 RMK AO2 SLP137 T00721144 53014

TAF

Not found

Frequencies

Recorded 126.50 MHz ATIS
Unicom 122.95 MHz UNICOM
Ground 121.80 MHz GND
Tower 120.20 MHz DEER VALLEY TWR
Unicom 118.40 MHz CTAF
Clearance 123.90 MHz CLNC DEL
Tower 118.40 MHz DEER VALLEY TWR
Approach 120.70 MHz APP/DEP
Warning: Do not use this data for real-world aviation or navigation. No guarantee of current accuracy is given.